• Join FlightAware (Why Join?)
  • Login
  • US Flag 
08:03PM EST


 

Airport Tracker/Info


-or-


 

Live Flight TrackerFlight Track Log ✈ N721KK ✈ 17-Jul-2012 ✈ KMAF - KTPL

Flight Track Log - Related Links

Times and Time Zones

All times are in EDT time to prevent confusion due to time zone crossing. See the N721KK flight status page for this flight to view local times or setup timezone preferences in your user account.

Time Position Orientation Groundspeed Altitude Reporting Facility
EDT Latitude Longitude Course Direction KTS MPH feet Rate Location/Type
10:42AM 31.7825 -101.7781 110° East 148 170 9,000  Level Fort Worth Center
10:43AM 31.7656 -101.7233 108° East 169 194 9,000  Level Fort Worth Center
10:44AM 31.7508 -101.6689 110° East 169 194 9,000  Level Fort Worth Center
10:45AM 31.7339 -101.6144 112° Southeast 169 194 9,000  Level Fort Worth Center
10:46AM 31.7167 -101.5647 108° East 169 194 9,000  Level Fort Worth Center
10:47AM 31.7019 -101.5106 110° East 169 194 9,000  Level Fort Worth Center
10:48AM 31.6867 -101.4608 111° Southeast 169 194 9,000  Level Fort Worth Center
10:49AM 31.6697 -101.4089 110° East 169 194 9,000  Level Fort Worth Center
10:50AM 31.6525 -101.3544 110° East 169 194 9,000  Level Fort Worth Center
10:51AM 31.6375 -101.3050 110° East 169 194 9,000  Level Fort Worth Center
10:52AM 31.6203 -101.2508 110° East 169 194 9,000  Level Fort Worth Center
10:53AM 31.6050 -101.2014 109° East 169 194 9,000  Level Fort Worth Center
10:54AM 31.5900 -101.1494 111° Southeast 169 194 9,000  Level Fort Worth Center
10:55AM 31.5728 -101.0975 110° East 169 194 9,000  Level Fort Worth Center
10:56AM 31.5575 -101.0483 109° East 169 194 9,000  Level Fort Worth Center
10:57AM 31.5422 -100.9964 110° East 169 194 9,000  Level Fort Worth Center
10:58AM 31.5269 -100.9472 109° East 169 194 9,000  Level Fort Worth Center
10:59AM 31.5117 -100.8953 112° Southeast 169 194 9,000  Level Fort Worth Center
11:00AM 31.4942 -100.8436 110° East 169 194 9,000  Level Fort Worth Center
11:01AM 31.4789 -100.7942 109° East 169 194 9,000  Level Fort Worth Center
11:02AM 31.4636 -100.7425 111° Southeast 169 194 9,000  Level Fort Worth Center
11:03AM 31.4461 -100.6883 109° East 169 194 9,000  Level Fort Worth Center
11:04AM 31.4308 -100.6367 103° East 169 194 9,000  Level Fort Worth Center
11:12AM 31.3411 -100.1908 97° East 173 199 9,000  Level Fort Worth Center
11:13AM 31.3361 -100.1422 99° East 187 215 9,000  Level Fort Worth Center
11:14AM 31.3289 -100.0861 96° East 180 207 9,000  Level Fort Worth Center
11:15AM 31.3239 -100.0300 99° East 180 207 9,000  Level Fort Worth Center
11:16AM 31.3181 -99.9844 98° East 178 205 9,000  Level Houston Center
11:17AM 31.3111 -99.9281 99° East 178 205 9,000  Level Houston Center
11:18AM 31.3039 -99.8767 96° East 173 199 9,000  Level Houston Center
11:19AM 31.2989 -99.8206 98° East 173 199 9,000  Level Houston Center
11:20AM 31.2919 -99.7642 101° East 168 193 9,000  Level Houston Center
11:21AM 31.2828 -99.7075 99° East 168 193 9,000  Level Houston Center
11:22AM 31.2756 -99.6536 98° East 168 193 9,000  Level Houston Center
11:23AM 31.2686 -99.5947 99° East 168 193 9,000  Level Houston Center
11:24AM 31.2614 -99.5383 99° East 168 193 9,000  Level Houston Center
11:25AM 31.2542 -99.4844 97° East 168 193 9,000  Level Houston Center
11:26AM 31.2489 -99.4308 99° East 168 193 9,000  Level Houston Center
11:27AM 31.2403 -99.3669 101° East 168 193 9,000  Level Houston Center
11:28AM 31.2308 -99.3106 97° East 168 193 9,000  Level Houston Center
11:29AM 31.2256 -99.2567 100° East 168 193 9,000  Level Houston Center
11:30AM 31.2167 -99.1956 97° East 173 199 9,000  Level Houston Center
11:31AM 31.2111 -99.1442 99° East 180 207 9,000  Level Houston Center
11:32AM 31.2036 -99.0903 98° East 179 206 9,000  Level Houston Center
11:33AM 31.1964 -99.0314 100° East 179 206 9,000  Level Houston Center
11:34AM 31.1872 -98.9725 93° East 174 200 9,000  Level Houston Center
11:35AM 31.1842 -98.9142 104° East 174 200 9,000  Level Houston Center
11:36AM 31.1725 -98.8600 97° East 174 200 9,000  Level Houston Center
11:37AM 31.1669 -98.8039 102° East 174 200 9,000  Level Houston Center
11:38AM 31.1575 -98.7500 98° East 174 200 9,000  Level Houston Center
11:39AM 31.1500 -98.6911 96° East 174 200 9,000  Level Houston Center
11:40AM 31.1447 -98.6350 99° East 174 200 9,000  Level Houston Center
11:41AM 31.1372 -98.5789 100° East 180 207 9,000  Level Houston Center
11:43AM 31.1192 -98.4542 99° East 175 201 9,000  Level Fort Worth Center
11:44AM 31.1114 -98.3983 100° East 174 200 9,000  Level Fort Worth Center
11:45AM 31.1033 -98.3450 99° East 174 200 9,000  Level Fort Worth Center
11:46AM 31.0953 -98.2867 99° East 175 201 9,000  Level Fort Worth Center
11:47AM 31.0875 -98.2308 94° East 177 204 9,000  Level Fort Worth Center
11:48AM 31.0836 -98.1700 35° Northeast 179 206 9,000  Level Fort Worth Center
11:49AM 31.1278 -98.1342 33° Northeast 187 215 9,000  Level Fort Worth Center
11:50AM 31.1697 -98.1028 33° Northeast 188 216 9,000  Level Fort Worth Center
11:51AM 31.2178 -98.0667 31° Northeast 188 216 9,000  Level Fort Worth Center
11:53AM 31.2661 -98.0331 36° Northeast 190 219 9,000  Level Fort Worth Center
11:54AM 31.3058 -97.9992 50° Northeast 187 215 9,000 -240 Level Fort Worth Center
11:54AM 31.3353 -97.9581 51° Northeast 186 214 8,600 -600 Descending Fort Worth Center
11:56AM 31.3689 -97.9097 55° Northeast 172 198 7,900 -660 Descending Fort Worth Center
11:57AM 31.3961 -97.8636 87° East 167 192 7,300 -600 Descending Fort Worth Center
11:58AM 31.3983 -97.8125 84° East 162 186 6,700 -600 Descending Fort Worth Center
11:59AM 31.4028 -97.7614 98° East 158 182 6,100 -600 Descending Fort Worth Center
12:00PM 31.3967 -97.7128 100° East 155 178 5,500 -600 Descending Fort Worth Center
12:01PM 31.3883 -97.6592 99° East 156 180 4,900 -600 Descending Fort Worth Center
12:02PM 31.3822 -97.6128 117° Southeast 159 183 4,300 -480 Descending Fort Worth Center
12:03PM 31.3614 -97.5642 115° Southeast 141 162 4,000 -480 Descending Fort Worth Center
12:04PM 31.3447 -97.5228 117° Southeast 140 161 3,300 -540 Descending Fort Worth Center
12:05PM 31.3281 -97.4839 117° Southeast 131 151 3,000 -300 Descending Fort Worth Center